Terminal Aerodrome Forecast
Issued by NWS Wichita, KS

Home | Current Version | Previous Version | Text Only | Print | Product List | Glossary Off
Versions: 1 2 3 4 5 6 7 8 9 10 11 12 13 14 15 16 17 18

095
FTUS43 KICT 121742
TAFICT
TAF
KICT 121742Z 1218/1318 03017KT P6SM BKN015 OVC250
     FM122000 01013KT P6SM SCT025 OVC250
     FM122200 02013KT P6SM SCT035 OVC100
     FM130000 04009KT P6SM OVC110=

USA.gov is the U.S. government's official web portal to all federal, state and local government web resources and services.